createdAt,value
2023-04-10T00:00:10.411Z,102459.09
2023-04-10T00:02:38.226Z,102460.94
2023-04-10T00:05:05.181Z,102459.22
2023-04-10T00:07:31.749Z,102454.66
2023-04-10T00:09:58.125Z,102453.06
2023-04-10T00:12:25.212Z,102454.06
2023-04-10T00:14:51.671Z,102462.22
2023-04-10T00:17:18.051Z,102459.66
2023-04-10T00:19:44.431Z,102466.91
2023-04-10T00:22:10.765Z,102459.75
2023-04-10T00:24:37.152Z,102451.59
2023-04-10T00:27:03.691Z,102461.78
2023-04-10T00:29:30.339Z,102454.59
2023-04-10T00:31:56.713Z,102454.72
2023-04-10T00:34:24.079Z,102455.59
2023-04-10T00:36:50.528Z,102458.31
2023-04-10T00:39:16.927Z,102447.59
2023-04-10T00:41:43.372Z,102438.56
2023-04-10T00:44:09.798Z,102440.44
2023-04-10T00:46:37.658Z,102433.25
2023-04-10T00:49:04.358Z,102434.13
2023-04-10T00:51:31.365Z,102430.53
2023-04-10T00:54:00.239Z,102426.97
2023-04-10T00:56:26.696Z,102428.69
2023-04-10T00:58:53.064Z,102424.13
2023-04-10T01:01:19.513Z,102431.13
2023-04-10T01:03:46.236Z,102426.44
2023-04-10T01:06:19.331Z,102430.00
2023-04-10T01:08:51.957Z,102430.13
2023-04-10T01:11:37.561Z,102423.72
2023-04-10T01:14:07.262Z,102428.41
2023-04-10T01:16:36.296Z,102423.13
2023-04-10T01:19:09.360Z,102426.69
2023-04-10T01:21:36.643Z,102430.41
2023-04-10T01:24:21.751Z,102414.13
2023-04-10T01:27:20.691Z,102426.84
2023-04-10T01:29:52.277Z,102422.38
2023-04-10T01:32:20.707Z,102418.81
2023-04-10T01:34:49.560Z,102411.66
2023-04-10T01:37:17.006Z,102416.09
2023-04-10T01:39:43.998Z,102419.81
2023-04-10T01:42:11.923Z,102419.81
2023-04-10T01:44:41.204Z,102419.97
2023-04-10T01:47:08.002Z,102418.09
2023-04-10T01:49:35.353Z,102421.81
2023-04-10T01:52:02.134Z,102415.50
2023-04-10T01:54:28.727Z,102410.94
2023-04-10T01:56:56.811Z,102417.34
2023-04-10T01:59:23.296Z,102412.78
2023-04-10T02:01:49.783Z,102417.34
2023-04-10T02:04:16.345Z,102418.38
2023-04-10T02:06:55.744Z,102414.66
2023-04-10T02:09:25.786Z,102417.25
2023-04-10T02:11:56.060Z,102417.25
2023-04-10T02:14:23.174Z,102417.25
2023-04-10T02:16:52.887Z,102419.09
2023-04-10T02:19:19.738Z,102412.78
2023-04-10T02:21:47.180Z,102411.81
2023-04-10T02:24:13.701Z,102415.50
2023-04-10T02:26:53.138Z,102417.34
2023-04-10T02:29:19.843Z,102415.66
2023-04-10T02:31:46.897Z,102420.22
2023-04-10T02:34:13.326Z,102414.06
2023-04-10T02:36:41.953Z,102414.19
2023-04-10T02:39:08.685Z,102417.78
2023-04-10T02:41:35.088Z,102411.47
2023-04-10T02:44:01.738Z,102412.47
2023-04-10T02:46:28.180Z,102412.34
2023-04-10T02:48:55.281Z,102420.50
2023-04-10T02:51:21.659Z,102416.06
2023-04-10T02:53:48.527Z,102405.91
2023-04-10T02:56:14.955Z,102415.06
2023-04-10T02:58:45.522Z,102421.34
2023-04-10T03:01:12.000Z,102420.50
2023-04-10T03:03:38.411Z,102415.06
2023-04-10T03:06:06.894Z,102408.06
2023-04-10T03:08:34.384Z,102415.31
2023-04-10T03:11:00.761Z,102410.88
2023-04-10T03:13:27.192Z,102417.31
2023-04-10T03:15:53.681Z,102419.19
2023-04-10T03:18:20.146Z,102419.19
2023-04-10T03:20:47.155Z,102414.59
2023-04-10T03:23:13.592Z,102418.34
2023-04-10T03:25:39.950Z,102411.16
2023-04-10T03:28:06.344Z,102417.59
2023-04-10T03:30:33.220Z,102420.47
2023-04-10T03:32:59.536Z,102425.03
2023-04-10T03:35:25.915Z,102412.41
2023-04-10T03:37:52.267Z,102417.00
2023-04-10T03:40:18.687Z,102416.13
2023-04-10T03:42:45.643Z,102418.00
2023-04-10T03:45:12.392Z,102423.44
2023-04-10T03:47:38.764Z,102420.88
2023-04-10T03:50:05.475Z,102424.44
2023-04-10T03:52:31.855Z,102426.41
2023-04-10T03:54:58.259Z,102427.31
2023-04-10T03:57:24.708Z,102422.72
2023-04-10T03:59:51.751Z,102423.84
2023-04-10T04:02:18.314Z,102425.69
2023-04-10T04:04:45.238Z,102423.84
2023-04-10T04:07:13.562Z,102424.69
2023-04-10T04:09:41.202Z,102429.13
2023-04-10T04:12:07.976Z,102424.69
2023-04-10T04:14:34.356Z,102422.25
2023-04-10T04:17:00.842Z,102436.84
2023-04-10T04:19:27.275Z,102437.97
2023-04-10T04:21:53.653Z,102434.38
2023-04-10T04:24:19.999Z,102429.22
2023-04-10T04:26:46.592Z,102426.78
2023-04-10T04:29:13.017Z,102429.50
2023-04-10T04:31:39.368Z,102428.63
2023-04-10T04:34:05.757Z,102430.50
2023-04-10T04:36:32.190Z,102426.03
2023-04-10T04:38:58.584Z,102427.03
2023-04-10T04:41:25.022Z,102431.47
2023-04-10T04:43:53.537Z,102419.63
2023-04-10T04:46:20.390Z,102420.50
2023-04-10T04:48:46.829Z,102429.63
2023-04-10T04:51:13.147Z,102432.47
2023-04-10T04:53:39.481Z,102427.03
2023-04-10T04:56:06.115Z,102426.31
2023-04-10T04:58:32.557Z,102439.91
2023-04-10T05:00:59.204Z,102438.03
2023-04-10T05:03:25.711Z,102440.00
2023-04-10T05:05:52.278Z,102432.72
2023-04-10T05:08:18.616Z,102434.59
2023-04-10T05:10:45.037Z,102429.16
2023-04-10T05:13:11.497Z,102424.72
2023-04-10T05:15:38.020Z,102430.16
2023-04-10T05:18:04.581Z,102436.34
2023-04-10T05:20:31.410Z,102435.19
2023-04-10T05:22:58.268Z,102433.22
2023-04-10T05:25:24.652Z,102434.06
2023-04-10T05:27:50.972Z,102436.63
2023-04-10T05:30:17.405Z,102438.50
2023-04-10T05:32:43.970Z,102444.78
2023-04-10T05:35:10.354Z,102443.94
2023-04-10T05:37:36.744Z,102438.50
2023-04-10T05:40:03.548Z,102440.22
2023-04-10T05:42:30.391Z,102435.38
2023-04-10T05:44:56.749Z,102437.84
2023-04-10T05:47:23.350Z,102445.72
2023-04-10T05:49:49.695Z,102435.56
2023-04-10T05:52:16.095Z,102438.72
2023-04-10T05:54:42.543Z,102436.75
2023-04-10T05:57:08.874Z,102437.63
2023-04-10T05:59:35.205Z,102430.31
2023-04-10T06:02:02.047Z,102433.91
2023-04-10T06:04:28.680Z,102434.63
2023-04-10T06:06:55.343Z,102433.63
2023-04-10T06:09:21.660Z,102428.91
2023-04-10T06:11:48.000Z,102428.38
2023-04-10T06:14:14.312Z,102430.69
2023-04-10T06:16:41.085Z,102432.13
2023-04-10T06:19:07.449Z,102430.00
2023-04-10T06:21:33.787Z,102427.03
2023-04-10T06:24:00.395Z,102427.72
2023-04-10T06:26:26.820Z,102426.59
2023-04-10T06:28:53.437Z,102430.31
2023-04-10T06:31:23.585Z,102426.72
2023-04-10T06:33:50.559Z,102422.16
2023-04-10T06:36:17.310Z,102414.00
2023-04-10T06:38:43.824Z,102414.00
2023-04-10T06:41:10.486Z,102417.44
2023-04-10T06:43:38.007Z,102418.31
2023-04-10T06:46:05.127Z,102422.75
2023-04-10T06:48:31.839Z,102429.91
2023-04-10T06:51:00.464Z,102416.03
2023-04-10T06:53:28.374Z,102420.59
2023-04-10T06:55:54.839Z,102407.88
2023-04-10T06:58:21.290Z,102410.47
2023-04-10T07:00:47.699Z,102408.59
2023-04-10T07:03:14.187Z,102400.16
2023-04-10T07:05:42.061Z,102404.47
2023-04-10T07:08:08.955Z,102396.88
2023-04-10T07:10:36.015Z,102395.63
2023-04-10T07:13:02.384Z,102390.75
2023-04-10T07:15:28.709Z,102393.94
2023-04-10T07:17:56.344Z,102392.66
2023-04-10T07:20:22.808Z,102395.97
2023-04-10T07:22:49.204Z,102391.22
2023-04-10T07:25:15.751Z,102396.41
2023-04-10T07:27:42.290Z,102401.56
2023-04-10T07:30:08.884Z,102396.81
2023-04-10T07:32:35.453Z,102396.56
2023-04-10T07:35:01.945Z,102393.69
2023-04-10T07:37:28.338Z,102392.69
2023-04-10T07:39:54.800Z,102383.38
2023-04-10T07:42:21.170Z,102375.94
2023-04-10T07:44:47.572Z,102384.81
2023-04-10T07:47:14.144Z,102382.81
2023-04-10T07:49:41.239Z,102385.38
2023-04-10T07:52:07.644Z,102374.22
2023-04-10T07:54:34.382Z,102369.47
2023-04-10T07:57:01.164Z,102375.66
2023-04-10T07:59:28.541Z,102377.09
2023-04-10T08:01:55.536Z,102372.22
2023-04-10T08:04:22.320Z,102356.59
2023-04-10T08:06:49.972Z,102360.16
2023-04-10T08:09:16.449Z,102355.56
2023-04-10T08:11:42.798Z,102359.03
2023-04-10T08:14:09.247Z,102357.84
2023-04-10T08:16:36.228Z,102358.75
2023-04-10T08:19:02.896Z,102348.72
2023-04-10T08:21:30.402Z,102357.47
2023-04-10T08:23:58.245Z,102352.00
2023-04-10T08:26:26.151Z,102349.97
2023-04-10T08:28:53.666Z,102350.84
2023-04-10T08:31:21.268Z,102352.44
2023-04-10T08:33:48.364Z,102348.53
2023-04-10T08:36:20.181Z,102337.63
2023-04-10T08:38:47.399Z,102348.41
2023-04-10T08:41:17.523Z,102349.09
2023-04-10T08:43:45.718Z,102347.97
2023-04-10T08:46:13.079Z,102345.94
2023-04-10T08:48:45.683Z,102340.38
2023-04-10T08:51:19.522Z,102347.53
2023-04-10T08:53:48.407Z,102335.63
2023-04-10T08:56:16.184Z,102342.78
2023-04-10T08:58:42.994Z,102339.91
2023-04-10T09:01:11.740Z,102337.03
2023-04-10T09:03:38.488Z,102335.94
2023-04-10T09:06:05.598Z,102336.63
2023-04-10T09:08:32.239Z,102336.63
2023-04-10T09:10:58.676Z,102334.63
2023-04-10T09:13:35.647Z,102327.88
2023-04-10T09:16:02.809Z,102319.38
2023-04-10T09:18:42.638Z,102317.69
2023-04-10T09:21:10.932Z,102315.25
2023-04-10T09:23:37.573Z,102312.38
2023-04-10T09:26:25.921Z,102307.78
2023-04-10T09:29:01.644Z,102299.63
2023-04-10T09:31:30.398Z,102296.75
2023-04-10T09:34:12.116Z,102289.13
2023-04-10T09:36:38.794Z,102291.41
2023-04-10T09:39:05.988Z,102277.66
2023-04-10T09:41:32.545Z,102274.75
2023-04-10T09:44:06.039Z,102280.78
2023-04-10T09:46:32.449Z,102272.44
2023-04-10T09:49:01.395Z,102275.72
2023-04-10T09:51:28.646Z,102268.28
2023-04-10T09:53:55.201Z,102266.25
2023-04-10T09:56:22.693Z,102262.50
2023-04-10T09:58:49.464Z,102251.59
2023-04-10T10:01:16.118Z,102246.03
2023-04-10T10:03:43.671Z,102247.72
2023-04-10T10:06:11.711Z,102241.25
2023-04-10T10:08:38.075Z,102236.66
2023-04-10T10:11:06.768Z,102240.78
2023-04-10T10:13:41.560Z,102244.38
2023-04-10T10:16:17.225Z,102243.38
2023-04-10T10:19:06.654Z,102231.31
2023-04-10T10:21:34.322Z,102223.13
2023-04-10T10:24:01.621Z,102233.91
2023-04-10T10:26:29.187Z,102216.53
2023-04-10T10:28:56.799Z,102219.25
2023-04-10T10:31:24.474Z,102212.09
2023-04-10T10:33:54.043Z,102208.19
2023-04-10T10:36:20.688Z,102207.16
2023-04-10T10:39:13.981Z,102198.00
2023-04-10T10:41:51.133Z,102197.81
2023-04-10T10:44:28.822Z,102204.31
2023-04-10T10:47:04.294Z,102195.09
2023-04-10T10:49:49.505Z,102185.06
2023-04-10T10:52:16.009Z,102187.78
2023-04-10T10:54:50.005Z,102179.59
2023-04-10T10:57:44.039Z,102172.44
2023-04-10T11:00:10.846Z,102169.56
2023-04-10T11:02:37.354Z,102175.00
2023-04-10T11:05:03.967Z,102174.00
2023-04-10T11:08:02.959Z,102167.25
2023-04-10T11:10:47.973Z,102168.59
2023-04-10T11:13:18.138Z,102165.88
2023-04-10T11:15:44.856Z,102163.16
2023-04-10T11:18:12.153Z,102158.41
2023-04-10T11:20:57.418Z,102150.25
2023-04-10T11:23:24.138Z,102153.81
2023-04-10T11:25:51.961Z,102149.22
2023-04-10T11:28:47.707Z,102156.38
2023-04-10T11:31:15.088Z,102147.22
2023-04-10T11:33:41.623Z,102139.03
2023-04-10T11:36:08.072Z,102135.44
2023-04-10T11:38:34.428Z,102135.44
2023-04-10T11:41:02.681Z,102137.28
2023-04-10T11:43:29.317Z,102127.28
2023-04-10T11:46:00.008Z,102124.56
2023-04-10T11:48:27.256Z,102125.41
2023-04-10T11:50:53.676Z,102115.66
2023-04-10T11:53:21.552Z,102112.94
2023-04-10T11:55:48.057Z,102111.78
2023-04-10T11:58:23.593Z,102104.28
2023-04-10T12:01:16.090Z,102101.41
2023-04-10T12:03:43.227Z,102103.66
2023-04-10T12:06:13.460Z,102092.56
2023-04-10T12:08:46.031Z,102086.69
2023-04-10T12:11:13.137Z,102090.97
2023-04-10T12:13:39.991Z,102078.88
2023-04-10T12:16:08.095Z,102073.09
2023-04-10T12:18:34.711Z,102075.66
2023-04-10T12:21:01.687Z,102071.09
2023-04-10T12:23:28.743Z,102065.47
2023-04-10T12:26:06.673Z,102060.31
2023-04-10T12:28:33.160Z,102056.25
2023-04-10T12:30:59.662Z,102062.41
2023-04-10T12:33:26.635Z,102057.94
2023-04-10T12:35:54.351Z,102056.56
2023-04-10T12:38:36.407Z,102051.81
2023-04-10T12:41:03.528Z,102053.38
2023-04-10T12:43:33.851Z,102042.59
2023-04-10T12:46:00.334Z,102039.34
2023-04-10T12:48:26.886Z,102041.53
2023-04-10T12:50:53.277Z,102022.44
2023-04-10T12:53:19.618Z,102025.16
2023-04-10T12:56:06.406Z,102020.59
2023-04-10T12:58:33.091Z,102014.75
2023-04-10T13:01:03.520Z,102018.31
2023-04-10T13:03:30.211Z,101995.84
2023-04-10T13:05:56.660Z,101999.69
2023-04-10T13:08:23.236Z,101989.81
2023-04-10T13:10:49.659Z,101986.06
2023-04-10T13:13:16.119Z,101986.41
2023-04-10T13:15:42.882Z,101972.06
2023-04-10T13:18:10.508Z,101969.81
2023-04-10T13:20:38.048Z,101957.75
2023-04-10T13:23:04.510Z,101971.38
2023-04-10T13:25:34.708Z,101952.59
2023-04-10T13:28:01.747Z,101951.22
2023-04-10T13:30:29.006Z,101945.94
2023-04-10T13:32:57.266Z,101943.22
2023-04-10T13:35:23.810Z,101945.06
2023-04-10T13:37:53.119Z,101934.16
2023-04-10T13:40:20.440Z,101938.25
2023-04-10T13:42:47.771Z,101933.13
2023-04-10T13:45:15.004Z,101928.16
2023-04-10T13:47:41.677Z,101923.00
2023-04-10T13:50:08.389Z,101903.75
2023-04-10T13:52:34.800Z,101905.00
2023-04-10T13:55:01.201Z,101911.31
2023-04-10T13:57:27.755Z,101894.09
2023-04-10T13:59:54.265Z,101881.94
2023-04-10T14:02:20.764Z,101897.63
2023-04-10T14:04:47.528Z,101886.72
2023-04-10T14:07:13.921Z,101877.84
2023-04-10T14:09:40.779Z,101879.34
2023-04-10T14:12:07.266Z,101879.53
2023-04-10T14:14:33.753Z,101871.34
2023-04-10T14:17:00.216Z,101868.78
2023-04-10T14:19:26.630Z,101853.44
2023-04-10T14:21:52.966Z,101865.38
2023-04-10T14:24:19.360Z,101855.50
2023-04-10T14:26:45.774Z,101845.59
2023-04-10T14:29:13.464Z,101860.22
2023-04-10T14:31:50.687Z,101846.06
2023-04-10T14:34:23.460Z,101862.91
2023-04-10T14:36:49.877Z,101853.34
2023-04-10T14:39:16.287Z,101846.50
2023-04-10T14:41:42.726Z,101852.13
2023-04-10T14:44:09.134Z,101840.38
2023-04-10T14:46:35.648Z,101827.59
2023-04-10T14:49:02.000Z,101836.63
2023-04-10T14:51:28.820Z,101825.56
2023-04-10T14:53:55.457Z,101833.91
2023-04-10T14:56:22.043Z,101826.75
2023-04-10T14:58:48.480Z,101805.09
2023-04-10T15:01:15.337Z,101809.72
2023-04-10T15:03:41.951Z,101806.31
2023-04-10T15:06:08.484Z,101798.81
2023-04-10T15:08:34.914Z,101805.47
2023-04-10T15:11:02.051Z,101793.00
2023-04-10T15:13:28.489Z,101797.44
2023-04-10T15:15:55.400Z,101785.69
2023-04-10T15:18:21.844Z,101787.38
2023-04-10T15:20:48.408Z,101782.97
2023-04-10T15:23:14.820Z,101774.63
2023-04-10T15:25:41.178Z,101789.97
2023-04-10T15:28:08.244Z,101778.34
2023-04-10T15:30:34.673Z,101773.94
2023-04-10T15:33:01.076Z,101775.63
2023-04-10T15:35:28.774Z,101774.78
2023-04-10T15:37:55.419Z,101763.22
2023-04-10T15:40:21.846Z,101759.59
2023-04-10T15:42:48.213Z,101754.03
2023-04-10T15:45:16.001Z,101751.13
2023-04-10T15:47:42.522Z,101748.41
2023-04-10T15:50:10.686Z,101741.94
2023-04-10T15:52:37.271Z,101740.09
2023-04-10T15:55:03.759Z,101733.94
2023-04-10T15:57:30.116Z,101728.66
2023-04-10T15:59:58.920Z,101720.31
2023-04-10T16:02:25.495Z,101731.22
2023-04-10T16:04:52.262Z,101719.47
2023-04-10T16:07:18.812Z,101713.16
2023-04-10T16:09:45.240Z,101708.75
2023-04-10T16:12:12.763Z,101706.69
2023-04-10T16:14:39.348Z,101701.78
2023-04-10T16:17:05.744Z,101687.47
2023-04-10T16:19:32.203Z,101683.75
2023-04-10T16:21:58.637Z,101689.31
2023-04-10T16:24:25.086Z,101683.22
2023-04-10T16:26:51.467Z,101679.63
2023-04-10T16:29:19.839Z,101676.22
2023-04-10T16:31:46.421Z,101671.78
2023-04-10T16:34:12.987Z,101664.28
2023-04-10T16:36:39.407Z,101669.41
2023-04-10T16:39:07.360Z,101659.38
2023-04-10T16:41:33.737Z,101657.66
2023-04-10T16:44:00.255Z,101650.66
2023-04-10T16:46:27.144Z,101646.59
2023-04-10T16:48:53.878Z,101639.63
2023-04-10T16:51:20.544Z,101641.16
2023-04-10T16:53:46.898Z,101632.13
2023-04-10T16:56:13.380Z,101628.41
2023-04-10T16:58:41.893Z,101625.69
2023-04-10T17:01:18.697Z,101629.09
2023-04-10T17:03:46.119Z,101619.75
2023-04-10T17:06:12.758Z,101623.84
2023-04-10T17:08:39.189Z,101625.69
2023-04-10T17:11:06.112Z,101620.25
2023-04-10T17:13:33.005Z,101614.78
2023-04-10T17:15:59.452Z,101612.25
2023-04-10T17:18:27.155Z,101605.78
2023-04-10T17:20:53.541Z,101600.31
2023-04-10T17:23:19.913Z,101601.16
2023-04-10T17:25:46.296Z,101592.84
2023-04-10T17:28:12.626Z,101590.13
2023-04-10T17:30:39.138Z,101581.09
2023-04-10T17:33:05.586Z,101588.56
2023-04-10T17:35:32.072Z,101584.34
2023-04-10T17:37:58.451Z,101579.75
2023-04-10T17:40:25.140Z,101568.00
2023-04-10T17:42:51.538Z,101561.69
2023-04-10T17:45:18.205Z,101557.94
2023-04-10T17:47:44.743Z,101556.25
2023-04-10T17:50:11.272Z,101557.94
2023-04-10T17:52:37.813Z,101553.69
2023-04-10T17:55:04.359Z,101555.53
2023-04-10T17:57:30.752Z,101547.38
2023-04-10T17:59:57.167Z,101550.28
2023-04-10T18:02:23.561Z,101545.81
2023-04-10T18:04:49.974Z,101543.81
2023-04-10T18:07:16.410Z,101533.75
2023-04-10T18:09:42.857Z,101530.19
2023-04-10T18:12:09.280Z,101526.75
2023-04-10T18:14:37.084Z,101529.84
2023-04-10T18:17:03.662Z,101516.22
2023-04-10T18:19:30.901Z,101522.66
2023-04-10T18:21:57.300Z,101519.09
2023-04-10T18:24:23.704Z,101524.53
2023-04-10T18:26:50.149Z,101519.28
2023-04-10T18:29:16.631Z,101509.41
2023-04-10T18:31:43.078Z,101511.28
2023-04-10T18:34:09.617Z,101504.13
2023-04-10T18:36:36.397Z,101505.16
2023-04-10T18:39:03.023Z,101509.91
2023-04-10T18:41:29.397Z,101510.75
2023-04-10T18:44:04.278Z,101512.47
2023-04-10T18:46:32.526Z,101503.28
2023-04-10T18:48:59.274Z,101506.84
2023-04-10T18:51:26.437Z,101501.38
2023-04-10T18:53:53.057Z,101499.50
2023-04-10T18:56:19.635Z,101496.78
2023-04-10T18:58:48.313Z,101486.78
2023-04-10T19:01:17.741Z,101479.78
2023-04-10T19:03:47.343Z,101481.66
2023-04-10T19:06:17.320Z,101480.81
2023-04-10T19:08:43.729Z,101479.09
2023-04-10T19:11:10.315Z,101473.63
2023-04-10T19:13:36.743Z,101466.47
2023-04-10T19:16:03.747Z,101477.25
2023-04-10T19:18:31.014Z,101461.03
2023-04-10T19:20:57.612Z,101458.19
2023-04-10T19:23:26.047Z,101451.72
2023-04-10T19:25:53.390Z,101447.09
2023-04-10T19:28:19.938Z,101458.84
2023-04-10T19:30:46.384Z,101439.97
2023-04-10T19:33:12.770Z,101441.97
2023-04-10T19:35:39.215Z,101426.66
2023-04-10T19:38:05.555Z,101425.50
2023-04-10T19:40:32.166Z,101420.06
2023-04-10T19:43:01.980Z,101417.44
2023-04-10T19:45:29.432Z,101413.88
2023-04-10T19:47:56.534Z,101406.44
2023-04-10T19:50:23.050Z,101404.03
2023-04-10T19:52:49.566Z,101394.69
2023-04-10T19:55:17.588Z,101405.56
2023-04-10T19:57:45.374Z,101392.09
2023-04-10T20:00:12.586Z,101391.81
2023-04-10T20:02:39.343Z,101381.94
2023-04-10T20:05:06.104Z,101384.66
2023-04-10T20:07:32.574Z,101387.38
2023-04-10T20:10:02.556Z,101378.34
2023-04-10T20:12:30.110Z,101376.59
2023-04-10T20:14:56.593Z,101374.91
2023-04-10T20:17:22.977Z,101370.31
2023-04-10T20:19:49.330Z,101364.72
2023-04-10T20:22:15.746Z,101366.09
2023-04-10T20:24:42.075Z,101358.06
2023-04-10T20:27:08.446Z,101365.19
2023-04-10T20:29:34.893Z,101350.75
2023-04-10T20:32:01.340Z,101348.38
2023-04-10T20:34:27.735Z,101344.13
2023-04-10T20:36:54.208Z,101339.34
2023-04-10T20:39:20.860Z,101334.09
2023-04-10T20:41:47.257Z,101331.53
2023-04-10T20:44:13.650Z,101327.97
2023-04-10T20:46:40.267Z,101331.53
2023-04-10T20:49:06.861Z,101326.09
2023-04-10T20:51:37.055Z,101327.09
2023-04-10T20:54:04.477Z,101319.44
2023-04-10T20:56:40.674Z,101314.00
2023-04-10T20:59:10.037Z,101314.19
2023-04-10T21:01:36.509Z,101306.00
2023-04-10T21:04:03.038Z,101298.69
2023-04-10T21:06:29.783Z,101297.66
2023-04-10T21:08:56.330Z,101286.25
2023-04-10T21:11:22.767Z,101288.13
2023-04-10T21:13:49.283Z,101293.75
2023-04-10T21:16:15.999Z,101292.06
2023-04-10T21:18:42.452Z,101284.91
2023-04-10T21:21:09.088Z,101284.91
2023-04-10T21:23:35.451Z,101279.47
2023-04-10T21:26:02.154Z,101283.91
2023-04-10T21:28:28.593Z,101284.91
2023-04-10T21:30:54.912Z,101289.34
2023-04-10T21:33:21.230Z,101292.91
2023-04-10T21:35:47.636Z,101292.06
2023-04-10T21:38:14.450Z,101290.34
2023-04-10T21:40:40.911Z,101292.06
2023-04-10T21:43:07.398Z,101285.78
2023-04-10T21:45:37.488Z,101280.34
2023-04-10T21:48:04.077Z,101269.59
2023-04-10T21:50:30.952Z,101271.66
2023-04-10T21:52:57.438Z,101259.94
2023-04-10T21:55:23.892Z,101268.09
2023-04-10T21:57:50.312Z,101254.28
2023-04-10T22:00:17.134Z,101256.16
2023-04-10T22:02:44.062Z,101250.72
2023-04-10T22:05:12.419Z,101261.44
2023-04-10T22:07:38.736Z,101250.72
2023-04-10T22:10:05.382Z,101247.16
2023-04-10T22:12:31.902Z,101257.19
2023-04-10T22:14:58.232Z,101244.44
2023-04-10T22:17:24.676Z,101242.91
2023-04-10T22:19:51.061Z,101241.03
2023-04-10T22:22:18.421Z,101215.69
2023-04-10T22:24:46.225Z,101217.38
2023-04-10T22:27:12.560Z,101209.22
2023-04-10T22:29:39.669Z,101202.25
2023-04-10T22:32:06.169Z,101195.28
2023-04-10T22:34:32.537Z,101187.09
2023-04-10T22:36:58.973Z,101179.78
2023-04-10T22:39:25.678Z,101176.22
2023-04-10T22:41:52.386Z,101178.09
2023-04-10T22:44:18.715Z,101168.25
2023-04-10T22:46:48.084Z,101169.94
2023-04-10T22:49:17.232Z,101159.06
2023-04-10T22:51:45.914Z,101157.16
2023-04-10T22:54:12.516Z,101152.75
2023-04-10T22:56:39.378Z,101138.13
2023-04-10T22:59:05.808Z,101143.88
2023-04-10T23:01:32.301Z,101151.91
2023-04-10T23:03:58.705Z,101146.75
2023-04-10T23:06:25.667Z,101138.59
2023-04-10T23:08:51.999Z,101128.56
2023-04-10T23:11:18.420Z,101130.09
2023-04-10T23:13:44.796Z,101127.19
2023-04-10T23:16:11.607Z,101124.66
2023-04-10T23:18:39.400Z,101121.75
2023-04-10T23:21:07.067Z,101119.84
2023-04-10T23:23:33.794Z,101116.63
2023-04-10T23:26:00.318Z,101110.53
2023-04-10T23:28:27.302Z,101101.53
2023-04-10T23:30:53.694Z,101100.50
2023-04-10T23:33:20.102Z,101089.09
2023-04-10T23:35:46.568Z,101087.91
2023-04-10T23:38:12.955Z,101087.91
2023-04-10T23:40:39.387Z,101078.53
2023-04-10T23:43:05.916Z,101068.31
2023-04-10T23:45:32.405Z,101084.66
2023-04-10T23:47:58.976Z,101063.22
2023-04-10T23:50:25.399Z,101042.81
2023-04-10T23:52:51.998Z,101043.03
2023-04-10T23:55:18.766Z,101042.81
2023-04-10T23:57:45.245Z,101030.91
